KAPN

Alpena County Regional Airport

Alpena, Michigan, USA
METAR KAPN 152054Z AUTO 11009KT 10SM CLR 28/19 A2997 RMK AO2 SLP145 T02830189 58008
Observed Flight Rules
Jul-15 @ 20:54 UTC (18 minutes ago) Visual Flight Rules
Wind Visibility Clouds
110° at 9 knots 10 miles
  • Clear skies
Temperatures Readings
Current 28°C / 82°F
Dewpoint 19°C / 66°F
Humidity 58%
Altimeter 29.97" Hg
Pressure 1014.5 hPa
Elevation 210
METAR KAPN 152054Z AUTO 11009KT 10SM CLR 28/19 A2997 RMK AO2 SLP145 T02830189 58008
Observed Flight Rules
Jul-15 @ 20:54 UTC
(18 minutes ago)
VFR
Wind Visibility
110° at 9 knots 10 miles
Clouds
  • Clear skies
Temperature Dewpoint
28°C / 82°F 19°C / 66°F
Humidity Altimeter Pressure
58% 29.97" Hg 1014.5 hPa